createdAt,value
2018-01-25T00:00:37.604Z,1.93
2018-01-25T00:03:08.011Z,2.50
2018-01-25T00:05:38.216Z,1.90
2018-01-25T00:08:09.905Z,2.47
2018-01-25T00:10:40.476Z,2.50
2018-01-25T00:13:11.245Z,2.43
2018-01-25T00:15:42.517Z,2.40
2018-01-25T00:18:12.628Z,2.37
2018-01-25T00:20:43.124Z,2.57
2018-01-25T00:23:14.685Z,2.40
2018-01-25T00:25:45.220Z,2.20
2018-01-25T00:28:15.412Z,2.20
2018-01-25T00:30:46.637Z,1.93
2018-01-25T00:33:16.926Z,2.47
2018-01-25T00:35:47.188Z,2.20
2018-01-25T00:38:17.818Z,2.00
2018-01-25T00:40:48.061Z,1.93
2018-01-25T00:43:19.140Z,1.70
2018-01-25T00:45:49.285Z,1.73
2018-01-25T00:48:19.718Z,1.80
2018-01-25T00:50:50.111Z,1.80
2018-01-25T00:53:20.230Z,1.70
2018-01-25T00:55:50.652Z,1.50
2018-01-25T00:58:20.824Z,1.60
2018-01-25T01:00:51.014Z,1.53
2018-01-25T01:03:21.475Z,1.50
2018-01-25T01:05:52.317Z,1.60
2018-01-25T01:08:23.525Z,1.50
2018-01-25T01:10:53.879Z,1.40
2018-01-25T01:13:23.972Z,1.77
2018-01-25T01:15:54.100Z,1.40
2018-01-25T01:18:24.297Z,1.60
2018-01-25T01:20:54.833Z,1.47
2018-01-25T01:23:24.980Z,1.70
2018-01-25T01:25:55.924Z,1.50
2018-01-25T01:28:26.326Z,1.70
2018-01-25T01:30:56.504Z,1.60
2018-01-25T01:33:26.714Z,1.80
2018-01-25T01:35:56.939Z,1.83
2018-01-25T01:38:27.585Z,1.80
2018-01-25T01:40:57.752Z,1.50
2018-01-25T01:43:28.615Z,1.60
2018-01-25T01:45:58.814Z,1.47
2018-01-25T01:48:29.989Z,1.80
2018-01-25T01:51:00.408Z,1.30
2018-01-25T01:53:30.958Z,1.43
2018-01-25T01:56:01.229Z,1.40
2018-01-25T01:58:31.962Z,1.30
2018-01-25T02:01:02.890Z,1.53
2018-01-25T02:03:33.290Z,1.40
2018-01-25T02:06:03.484Z,1.63
2018-01-25T02:08:33.979Z,1.67
2018-01-25T02:11:04.884Z,1.77
2018-01-25T02:13:35.013Z,1.50
2018-01-25T02:16:05.778Z,1.60
2018-01-25T02:18:36.079Z,1.70
2018-01-25T02:21:06.772Z,1.60
2018-01-25T02:23:37.445Z,1.67
2018-01-25T02:26:08.136Z,1.50
2018-01-25T02:28:39.554Z,1.60
2018-01-25T02:31:10.890Z,1.43
2018-01-25T02:33:41.876Z,1.70
2018-01-25T02:36:12.235Z,1.70
2018-01-25T02:38:43.739Z,1.80
2018-01-25T02:41:14.194Z,1.70
2018-01-25T02:43:44.537Z,1.80
2018-01-25T02:46:15.607Z,1.60
2018-01-25T02:48:46.195Z,1.83
2018-01-25T02:51:16.643Z,1.60
2018-01-25T02:53:47.581Z,1.50
2018-01-25T02:56:17.713Z,2.10
2018-01-25T02:58:48.356Z,2.10
2018-01-25T03:01:19.292Z,2.30
2018-01-25T03:03:49.601Z,2.70
2018-01-25T03:06:20.444Z,3.13
2018-01-25T03:08:50.617Z,2.70
2018-01-25T03:11:21.001Z,2.33
2018-01-25T03:13:51.448Z,2.80
2018-01-25T03:16:21.628Z,2.57
2018-01-25T03:18:51.737Z,2.70
2018-01-25T03:21:22.913Z,2.60
2018-01-25T03:23:53.359Z,2.70
2018-01-25T03:26:23.777Z,3.60
2018-01-25T03:28:54.256Z,3.03
2018-01-25T03:31:25.239Z,2.70
2018-01-25T03:33:55.427Z,3.03
2018-01-25T03:36:25.995Z,3.57
2018-01-25T03:38:56.181Z,3.53
2018-01-25T03:41:26.704Z,3.40
2018-01-25T03:43:57.897Z,3.37
2018-01-25T03:46:28.102Z,3.53
2018-01-25T03:48:58.292Z,3.77
2018-01-25T03:51:28.719Z,3.60
2018-01-25T03:53:59.316Z,3.87
2018-01-25T03:56:29.960Z,4.10
2018-01-25T03:59:01.233Z,3.60
2018-01-25T04:01:31.697Z,3.83
2018-01-25T04:04:01.910Z,4.10
2018-01-25T04:06:32.311Z,4.40
2018-01-25T04:09:03.037Z,3.80
2018-01-25T04:11:33.541Z,4.20
2018-01-25T04:14:04.868Z,4.20
2018-01-25T04:16:34.996Z,4.43
2018-01-25T04:19:05.508Z,4.63
2018-01-25T04:21:35.669Z,4.67
2018-01-25T04:24:06.331Z,4.60
2018-01-25T04:26:36.698Z,4.87
2018-01-25T04:29:07.064Z,5.03
2018-01-25T04:31:38.386Z,5.07
2018-01-25T04:34:08.617Z,4.67
2018-01-25T04:36:39.321Z,5.27
2018-01-25T04:39:09.561Z,5.17
2018-01-25T04:41:39.843Z,5.10
2018-01-25T04:44:12.224Z,5.47
2018-01-25T04:46:43.740Z,5.60
2018-01-25T04:49:14.460Z,6.03
2018-01-25T04:51:45.585Z,5.77
2018-01-25T04:54:15.805Z,5.50
2018-01-25T04:56:46.203Z,5.70
2018-01-25T04:59:16.990Z,5.33
2018-01-25T05:01:47.616Z,5.97
2018-01-25T05:04:17.932Z,5.63
2018-01-25T05:06:48.084Z,6.13
2018-01-25T05:09:18.532Z,6.50
2018-01-25T05:11:48.850Z,5.93
2018-01-25T05:14:19.362Z,6.13
2018-01-25T05:16:49.648Z,6.50
2018-01-25T05:19:20.215Z,6.00
2018-01-25T05:21:51.484Z,6.60
2018-01-25T05:24:23.602Z,7.20
2018-01-25T05:26:54.773Z,7.80
2018-01-25T05:29:25.249Z,7.30
2018-01-25T05:31:55.775Z,8.47
2018-01-25T05:34:26.233Z,9.13
2018-01-25T05:36:56.709Z,9.10
2018-01-25T05:39:27.916Z,10.67
2018-01-25T05:41:58.777Z,9.90
2018-01-25T05:44:30.106Z,9.93
2018-01-25T05:47:00.643Z,10.13
2018-01-25T05:49:31.683Z,10.07
2018-01-25T05:52:02.567Z,9.97
2018-01-25T05:54:32.745Z,10.97
2018-01-25T05:57:02.965Z,10.20
2018-01-25T05:59:33.153Z,11.10
2018-01-25T06:02:03.662Z,10.90
2018-01-25T06:04:33.782Z,10.50
2018-01-25T06:07:03.973Z,10.60
2018-01-25T06:09:35.010Z,10.57
2018-01-25T06:12:05.746Z,10.60
2018-01-25T06:14:36.176Z,10.70
2018-01-25T06:17:06.372Z,11.60
2018-01-25T06:19:36.499Z,11.70
2018-01-25T06:22:07.156Z,11.50
2018-01-25T06:24:37.356Z,11.73
2018-01-25T06:27:09.824Z,12.10
2018-01-25T06:29:41.558Z,12.03
2018-01-25T06:32:12.252Z,12.87
2018-01-25T06:34:42.513Z,12.97
2018-01-25T06:37:12.941Z,11.97
2018-01-25T06:39:43.990Z,12.43
2018-01-25T06:42:15.193Z,12.30
2018-01-25T06:44:45.580Z,12.27
2018-01-25T06:47:16.971Z,12.63
2018-01-25T06:49:47.154Z,11.83
2018-01-25T06:52:17.273Z,12.33
2018-01-25T06:54:47.452Z,12.43
2018-01-25T06:57:17.925Z,12.60
2018-01-25T06:59:48.324Z,12.57
2018-01-25T07:02:18.981Z,13.67
2018-01-25T07:04:49.168Z,12.43
2018-01-25T07:07:19.739Z,12.00
2018-01-25T07:09:49.904Z,11.37
2018-01-25T07:12:20.119Z,11.60
2018-01-25T07:14:51.981Z,12.27
2018-01-25T07:17:23.984Z,11.57
2018-01-25T07:19:54.768Z,12.03
2018-01-25T07:22:25.581Z,11.93
2018-01-25T07:24:56.253Z,11.17
2018-01-25T07:27:26.584Z,11.17
2018-01-25T07:29:56.756Z,10.60
2018-01-25T07:32:27.024Z,10.20
2018-01-25T07:34:58.861Z,10.17
2018-01-25T07:37:29.297Z,10.53
2018-01-25T07:39:59.628Z,10.40
2018-01-25T07:42:30.629Z,9.70
2018-01-25T07:45:01.968Z,10.37
2018-01-25T07:47:33.801Z,8.90
2018-01-25T07:50:06.618Z,9.43
2018-01-25T07:52:37.722Z,9.53
2018-01-25T07:55:10.399Z,9.40
2018-01-25T07:57:46.803Z,8.70
2018-01-25T08:00:18.993Z,9.37
2018-01-25T08:02:52.326Z,8.97
2018-01-25T08:05:23.527Z,8.83
2018-01-25T08:07:54.256Z,8.87
2018-01-25T08:10:25.586Z,8.93
2018-01-25T08:13:00.132Z,7.97
2018-01-25T08:15:34.045Z,7.57
2018-01-25T08:18:04.661Z,8.00
2018-01-25T08:20:35.704Z,7.37
2018-01-25T08:23:06.174Z,7.67
2018-01-25T08:25:37.149Z,7.53
2018-01-25T08:28:07.370Z,7.37
2018-01-25T08:30:38.613Z,7.70
2018-01-25T08:33:09.536Z,7.83
2018-01-25T08:35:40.744Z,7.33
2018-01-25T08:38:11.522Z,6.50
2018-01-25T08:40:43.652Z,7.30
2018-01-25T08:43:15.554Z,7.27
2018-01-25T08:45:45.972Z,6.90
2018-01-25T08:48:16.578Z,6.60
2018-01-25T08:50:47.233Z,6.73
2018-01-25T08:53:17.414Z,7.10
2018-01-25T08:55:48.324Z,7.07
2018-01-25T08:58:18.826Z,7.20
2018-01-25T09:00:49.081Z,8.13
2018-01-25T09:03:19.657Z,8.10
2018-01-25T09:05:50.181Z,8.57
2018-01-25T09:08:20.489Z,8.50
2018-01-25T09:10:50.644Z,8.93
2018-01-25T09:13:20.780Z,8.40
2018-01-25T09:15:51.484Z,9.17
2018-01-25T09:18:21.634Z,8.77
2018-01-25T09:20:52.464Z,8.53
2018-01-25T09:23:23.934Z,9.03
2018-01-25T09:25:54.168Z,9.40
2018-01-25T09:28:28.851Z,8.93
2018-01-25T09:30:59.897Z,9.07
2018-01-25T09:33:31.193Z,10.03
2018-01-25T09:36:02.259Z,9.00
2018-01-25T09:38:33.742Z,8.87
2018-01-25T09:41:05.592Z,8.77
2018-01-25T09:43:36.573Z,8.63
2018-01-25T09:46:06.737Z,8.17
2018-01-25T09:48:38.310Z,8.43
2018-01-25T09:51:08.552Z,8.97
2018-01-25T09:53:39.250Z,7.90
2018-01-25T09:56:09.909Z,7.73
2018-01-25T09:58:40.157Z,7.57
2018-01-25T10:01:12.578Z,8.80
2018-01-25T10:03:42.897Z,7.40
2018-01-25T10:06:13.185Z,8.67
2018-01-25T10:08:43.380Z,8.07
2018-01-25T10:11:32.765Z,8.27
2018-01-25T10:14:05.238Z,8.97
2018-01-25T10:16:35.764Z,8.97
2018-01-25T10:19:06.644Z,9.50
2018-01-25T10:21:36.877Z,8.83
2018-01-25T10:24:09.362Z,9.90
2018-01-25T10:26:40.050Z,9.03
2018-01-25T10:29:11.190Z,9.07
2018-01-25T10:31:42.057Z,10.13
2018-01-25T10:34:12.516Z,9.97
2018-01-25T10:36:42.974Z,10.20
2018-01-25T10:39:13.275Z,9.67
2018-01-25T10:41:44.322Z,9.60
2018-01-25T10:44:14.758Z,9.33
2018-01-25T10:46:45.765Z,10.43
2018-01-25T10:49:16.036Z,10.07
2018-01-25T10:51:46.435Z,9.87
2018-01-25T10:54:16.647Z,11.17
2018-01-25T10:56:48.149Z,11.03
2018-01-25T10:59:18.669Z,11.23
2018-01-25T11:01:53.422Z,11.87
2018-01-25T11:04:23.800Z,12.20
2018-01-25T11:06:54.401Z,11.83
2018-01-25T11:09:24.535Z,12.60
2018-01-25T11:11:54.975Z,12.00
2018-01-25T11:14:25.546Z,12.43
2018-01-25T11:16:55.988Z,12.33
2018-01-25T11:19:26.168Z,12.90
2018-01-25T11:21:56.752Z,12.57
2018-01-25T11:24:27.372Z,11.97
2018-01-25T11:26:57.628Z,12.07
2018-01-25T11:29:28.642Z,12.00
2018-01-25T11:31:59.160Z,10.53
2018-01-25T11:34:29.683Z,10.60
2018-01-25T11:37:00.529Z,10.33
2018-01-25T11:39:31.195Z,9.90
2018-01-25T11:42:01.405Z,9.53
2018-01-25T11:44:31.604Z,9.37
2018-01-25T11:47:02.102Z,9.93
2018-01-25T11:49:32.458Z,9.83
2018-01-25T11:52:03.982Z,8.83
2018-01-25T11:54:34.431Z,9.93
2018-01-25T11:57:04.691Z,9.33
2018-01-25T11:59:34.841Z,8.77
2018-01-25T12:02:05.101Z,8.83
2018-01-25T12:04:35.677Z,8.73
2018-01-25T12:07:05.914Z,8.60
2018-01-25T12:09:36.682Z,7.97
2018-01-25T12:12:10.342Z,8.43
2018-01-25T12:14:41.290Z,8.13
2018-01-25T12:17:12.475Z,8.03
2018-01-25T12:19:42.955Z,7.00
2018-01-25T12:22:13.662Z,7.30
2018-01-25T12:24:44.015Z,6.67
2018-01-25T12:27:14.285Z,6.97
2018-01-25T12:29:44.706Z,6.90
2018-01-25T12:32:14.939Z,6.90
2018-01-25T12:34:46.120Z,7.00
2018-01-25T12:37:16.635Z,7.37
2018-01-25T12:39:46.840Z,6.70
2018-01-25T12:42:17.064Z,7.03
2018-01-25T12:44:47.583Z,6.40
2018-01-25T12:47:18.501Z,6.60
2018-01-25T12:49:48.754Z,6.50
2018-01-25T12:52:19.317Z,6.87
2018-01-25T12:54:49.712Z,7.17
2018-01-25T12:57:20.153Z,8.23
2018-01-25T12:59:51.872Z,7.73
2018-01-25T13:02:22.980Z,7.93
2018-01-25T13:04:58.191Z,8.33
2018-01-25T13:07:31.613Z,8.80
2018-01-25T13:10:02.285Z,8.30
2018-01-25T13:12:32.801Z,9.80
2018-01-25T13:15:03.185Z,9.33
2018-01-25T13:17:33.809Z,10.03
2018-01-25T13:20:04.337Z,10.70
2018-01-25T13:22:35.709Z,10.23
2018-01-25T13:25:08.153Z,10.17
2018-01-25T13:27:38.689Z,10.67
2018-01-25T13:30:09.134Z,10.47
2018-01-25T13:32:40.556Z,10.67
2018-01-25T13:35:11.166Z,10.87
2018-01-25T13:37:42.331Z,10.37
2018-01-25T13:40:12.937Z,11.50
2018-01-25T13:42:44.003Z,11.30
2018-01-25T13:45:14.256Z,11.13
2018-01-25T13:47:44.819Z,11.80
2018-01-25T13:50:16.145Z,12.30
2018-01-25T13:52:46.722Z,11.00
2018-01-25T13:55:16.978Z,12.23
2018-01-25T13:57:47.713Z,12.87
2018-01-25T14:00:25.721Z,11.97
2018-01-25T14:02:56.926Z,12.43
2018-01-25T14:05:27.439Z,12.07
2018-01-25T14:07:58.136Z,13.33
2018-01-25T14:10:29.248Z,13.03
2018-01-25T14:12:59.647Z,12.67
2018-01-25T14:15:30.402Z,13.20
2018-01-25T14:18:01.038Z,13.37
2018-01-25T14:20:32.696Z,12.70
2018-01-25T14:23:04.293Z,12.47
2018-01-25T14:25:35.761Z,14.07
2018-01-25T14:28:06.481Z,12.13
2018-01-25T14:30:37.327Z,13.30
2018-01-25T14:33:08.186Z,12.40
2018-01-25T14:35:39.132Z,12.20
2018-01-25T14:38:13.412Z,12.63
2018-01-25T14:40:44.554Z,13.00
2018-01-25T14:43:16.075Z,12.40
2018-01-25T14:45:46.790Z,13.00
2018-01-25T14:48:18.050Z,13.40
2018-01-25T14:50:48.595Z,13.47
2018-01-25T14:53:22.382Z,12.30
2018-01-25T14:55:54.237Z,13.23
2018-01-25T14:58:25.784Z,13.47
2018-01-25T15:01:04.415Z,12.47
2018-01-25T15:03:36.390Z,13.40
2018-01-25T15:06:07.085Z,12.20
2018-01-25T15:08:38.100Z,12.87
2018-01-25T15:11:08.644Z,12.90
2018-01-25T15:13:39.191Z,12.43
2018-01-25T15:16:10.800Z,12.87
2018-01-25T15:18:43.085Z,12.83
2018-01-25T15:21:13.692Z,12.90
2018-01-25T15:23:44.253Z,12.50
2018-01-25T15:26:19.348Z,12.93
2018-01-25T15:28:49.868Z,13.07
2018-01-25T15:31:20.776Z,12.50
2018-01-25T15:33:51.549Z,13.00
2018-01-25T15:36:21.951Z,13.60
2018-01-25T15:38:52.532Z,14.07
2018-01-25T15:41:22.922Z,13.40
2018-01-25T15:43:54.129Z,13.07
2018-01-25T15:46:24.702Z,13.17
2018-01-25T15:48:55.848Z,14.43
2018-01-25T15:51:30.307Z,14.80
2018-01-25T15:54:01.980Z,13.60
2018-01-25T15:56:33.505Z,13.33
2018-01-25T15:59:03.808Z,14.63
2018-01-25T16:01:35.583Z,14.57
2018-01-25T16:04:06.290Z,14.90
2018-01-25T16:06:36.643Z,14.80
2018-01-25T16:09:07.079Z,14.83
2018-01-25T16:11:37.680Z,15.43
2018-01-25T16:14:08.094Z,15.20
2018-01-25T16:16:38.462Z,15.93
2018-01-25T16:19:09.152Z,16.20
2018-01-25T16:21:39.827Z,18.07
2018-01-25T16:24:10.937Z,18.60
2018-01-25T16:26:41.558Z,15.13
2018-01-25T16:29:12.097Z,16.97
2018-01-25T16:31:42.733Z,15.20
2018-01-25T16:34:13.046Z,15.60
2018-01-25T16:36:43.428Z,16.50
2018-01-25T16:39:14.864Z,17.43
2018-01-25T16:41:45.362Z,15.77
2018-01-25T16:44:15.947Z,15.20
2018-01-25T16:46:47.105Z,16.50
2018-01-25T16:49:17.708Z,16.97
2018-01-25T16:51:48.835Z,16.23
2018-01-25T16:54:19.302Z,16.40
2018-01-25T16:56:50.680Z,17.30
2018-01-25T16:59:21.038Z,15.73
2018-01-25T17:01:52.378Z,16.63
2018-01-25T17:04:23.003Z,17.67
2018-01-25T17:06:53.422Z,31.03
2018-01-25T17:09:23.747Z,19.00
2018-01-25T17:11:55.321Z,17.60
2018-01-25T17:14:25.879Z,18.63
2018-01-25T17:16:56.444Z,17.60
2018-01-25T17:19:27.020Z,18.03
2018-01-25T17:21:57.605Z,18.30
2018-01-25T17:24:28.082Z,17.90
2018-01-25T17:26:58.566Z,17.87
2018-01-25T17:29:33.476Z,18.93
2018-01-25T17:32:05.420Z,19.17
2018-01-25T17:34:36.384Z,20.27
2018-01-25T17:37:07.069Z,20.43
2018-01-25T17:39:38.219Z,21.40
2018-01-25T17:42:09.129Z,21.00
2018-01-25T17:44:40.537Z,20.40
2018-01-25T17:47:11.436Z,20.70
2018-01-25T17:49:42.524Z,21.07
2018-01-25T17:52:12.845Z,19.53
2018-01-25T17:54:44.573Z,20.80
2018-01-25T17:57:14.901Z,21.23
2018-01-25T17:59:45.138Z,22.03
2018-01-25T18:02:15.708Z,20.60
2018-01-25T18:04:46.046Z,21.40
2018-01-25T18:07:17.448Z,22.50
2018-01-25T18:09:48.117Z,20.47
2018-01-25T18:12:18.744Z,21.17
2018-01-25T18:14:49.402Z,20.80
2018-01-25T18:17:20.014Z,20.83
2018-01-25T18:19:50.916Z,21.57
2018-01-25T18:22:22.054Z,21.53
2018-01-25T18:24:53.558Z,20.90
2018-01-25T18:27:24.144Z,23.07
2018-01-25T18:29:54.597Z,22.57
2018-01-25T18:32:25.466Z,23.13
2018-01-25T18:34:56.065Z,21.90
2018-01-25T18:37:27.361Z,22.80
2018-01-25T18:39:58.423Z,21.73
2018-01-25T18:42:29.125Z,22.90
2018-01-25T18:44:59.690Z,24.03
2018-01-25T18:47:30.841Z,24.33
2018-01-25T18:50:01.025Z,23.87
2018-01-25T18:52:31.568Z,23.43
2018-01-25T18:55:01.879Z,23.63
2018-01-25T18:57:32.220Z,24.97
2018-01-25T19:00:02.574Z,23.77
2018-01-25T19:02:33.261Z,22.63
2018-01-25T19:05:03.732Z,25.27
2018-01-25T19:07:34.788Z,23.93
2018-01-25T19:10:06.285Z,30.90
2018-01-25T19:12:36.571Z,31.97
2018-01-25T19:15:07.993Z,25.07
2018-01-25T19:17:38.255Z,24.87
2018-01-25T19:20:08.515Z,26.00
2018-01-25T19:22:39.029Z,27.67
2018-01-25T19:25:10.363Z,26.70
2018-01-25T19:27:40.629Z,26.27
2018-01-25T19:30:11.312Z,26.37
2018-01-25T19:32:41.991Z,25.37
2018-01-25T19:35:12.551Z,26.37
2018-01-25T19:37:43.612Z,25.60
2018-01-25T19:40:14.257Z,26.60
2018-01-25T19:42:45.426Z,27.67
2018-01-25T19:45:16.885Z,26.50
2018-01-25T19:47:47.777Z,26.43
2018-01-25T19:50:18.273Z,27.40
2018-01-25T19:52:49.402Z,26.17
2018-01-25T19:55:20.122Z,25.27
2018-01-25T19:57:51.620Z,25.90
2018-01-25T20:00:22.382Z,26.93
2018-01-25T20:02:53.448Z,26.30
2018-01-25T20:05:23.945Z,24.63
2018-01-25T20:07:54.421Z,28.50
2018-01-25T20:10:25.438Z,28.83
2018-01-25T20:12:55.641Z,27.47
2018-01-25T20:15:27.009Z,25.87
2018-01-25T20:17:57.773Z,27.13
2018-01-25T20:20:28.072Z,27.13
2018-01-25T20:22:59.175Z,26.93
2018-01-25T20:25:29.656Z,25.17
2018-01-25T20:28:00.852Z,27.27
2018-01-25T20:30:31.160Z,26.10
2018-01-25T20:33:01.719Z,28.00
2018-01-25T20:35:32.105Z,26.93
2018-01-25T20:38:02.495Z,26.03
2018-01-25T20:40:35.016Z,27.03
2018-01-25T20:43:05.400Z,26.77
2018-01-25T20:45:36.738Z,27.27
2018-01-25T20:48:08.208Z,25.17
2018-01-25T20:50:38.611Z,25.80
2018-01-25T20:53:09.188Z,29.60
2018-01-25T20:55:40.441Z,27.97
2018-01-25T20:58:11.291Z,27.20
2018-01-25T21:00:42.517Z,27.27
2018-01-25T21:03:14.079Z,26.73
2018-01-25T21:05:44.513Z,27.33
2018-01-25T21:08:15.239Z,28.73
2018-01-25T21:10:46.401Z,27.27
2018-01-25T21:13:17.639Z,28.50
2018-01-25T21:15:49.104Z,29.67
2018-01-25T21:18:19.491Z,29.10
2018-01-25T21:20:49.774Z,27.57
2018-01-25T21:23:20.959Z,27.03
2018-01-25T21:25:52.200Z,25.90
2018-01-25T21:28:22.462Z,26.00
2018-01-25T21:30:52.809Z,25.40
2018-01-25T21:33:23.511Z,26.43
2018-01-25T21:35:54.773Z,27.87
2018-01-25T21:38:25.982Z,25.60
2018-01-25T21:40:56.410Z,24.67
2018-01-25T21:43:27.024Z,23.03
2018-01-25T21:45:58.306Z,23.93
2018-01-25T21:48:30.572Z,23.43
2018-01-25T21:51:01.923Z,23.53
2018-01-25T21:53:36.285Z,23.83
2018-01-25T21:56:06.737Z,23.80
2018-01-25T21:58:38.763Z,24.83
2018-01-25T22:01:13.957Z,26.10
2018-01-25T22:03:45.384Z,26.23
2018-01-25T22:06:18.360Z,25.73
2018-01-25T22:08:49.015Z,26.50
2018-01-25T22:11:21.714Z,25.73
2018-01-25T22:13:52.585Z,28.07
2018-01-25T22:16:23.133Z,25.33
2018-01-25T22:18:54.610Z,27.60
2018-01-25T22:21:26.176Z,26.47
2018-01-25T22:23:56.440Z,26.70
2018-01-25T22:26:28.164Z,26.23
2018-01-25T22:28:58.638Z,26.80
2018-01-25T22:31:29.531Z,26.10
2018-01-25T22:34:00.464Z,27.23
2018-01-25T22:36:30.956Z,26.60
2018-01-25T22:39:01.309Z,27.03
2018-01-25T22:41:31.844Z,25.53
2018-01-25T22:44:02.226Z,25.77
2018-01-25T22:46:32.920Z,26.50
2018-01-25T22:49:03.998Z,27.27
2018-01-25T22:51:34.480Z,25.67
2018-01-25T22:54:04.696Z,24.67
2018-01-25T22:56:37.085Z,24.93
2018-01-25T22:59:08.033Z,27.07
2018-01-25T23:01:38.340Z,24.70
2018-01-25T23:04:08.913Z,25.80
2018-01-25T23:06:39.385Z,25.17
2018-01-25T23:09:09.698Z,23.27
2018-01-25T23:11:39.920Z,25.17
2018-01-25T23:14:10.621Z,25.97
2018-01-25T23:16:41.304Z,25.57
2018-01-25T23:19:11.578Z,24.17
2018-01-25T23:21:41.984Z,25.97
2018-01-25T23:24:12.257Z,24.87
2018-01-25T23:26:42.918Z,26.00
2018-01-25T23:29:13.258Z,24.00
2018-01-25T23:31:43.484Z,23.60
2018-01-25T23:34:14.051Z,24.30
2018-01-25T23:36:45.438Z,24.73
2018-01-25T23:39:15.807Z,24.93
2018-01-25T23:41:46.785Z,22.93
2018-01-25T23:44:17.713Z,23.00
2018-01-25T23:46:56.890Z,22.83
2018-01-25T23:49:28.134Z,23.20
2018-01-25T23:52:08.492Z,21.73
2018-01-25T23:54:41.409Z,22.83
2018-01-25T23:57:11.746Z,21.77
2018-01-25T23:59:42.268Z,21.93
